Thunder radar more information blitzortung!


Radar de pluja more information rain snow radar


Visita la nostra xarxa de llocs de meteo:

Template documentation
and downloads

And another site



No particular awareness of the weather is required.    There are no Weather-warnings

Pagina Historial Weather Underground text

Diari Resum Juny 1, 2016 Unitats:  Mètric    Imperial   Tant
« Previous Dia
SegĂźent Dia »
Diari Setmana Mensual Anual Personalitzada
  Maxima: Minima: Media:
Temperatura: 26.1 °C 12.8 °C 19.6 °C
Punt de rosada: 11.1 °C 7.1 °C 9.1 °C
Humitat: 78 % 32 % 52 %
Wind Speed: 24.1 km/h 0.0 km/h 8.8 km/h
RĂ fegues de vent: 24.1 km/h - -
Vent:- - ESE
Pression baro: 1020.9 hPa 1014.8 hPa -
Precipitacions: 0.0 mm    
Historical Graphs
 
 
Dades de taula per Juny 1, 2016
Temps Temperatura Punt de rosada Pression baro Vent Wind Speed RĂ fegues de vent Humitat Rainfall Rate (Hourly)
00:00 16.6 °C 11.1 °C 1020.9 hPa NNE 3.9 km/h 3.9 km/h 70 % 0.0 mm
00:15 13.8 °C 8.2 °C 1018.8 hPa WSW 3.2 km/h 4.8 km/h 69 % 0.0 mm
02:05 12.8 °C 7.1 °C 1019.9 hPa Calm   4.8 km/h 68 % 0.0 mm
02:15 13.3 °C 7.5 °C 1019.9 hPa NNE 1.6 km/h 3.2 km/h 68 % 0.0 mm
02:25 13.3 °C 7.5 °C 1019.9 hPa Calm   3.2 km/h 68 % 0.0 mm
02:35 13.8 °C 7.8 °C 1019.9 hPa NE 1.6 km/h 4.8 km/h 67 % 0.0 mm
02:45 14.0 °C 7.7 °C 1019.9 hPa ENE 3.2 km/h 4.8 km/h 66 % 0.0 mm
02:55 14.2 °C 7.9 °C 1019.9 hPa NE 1.6 km/h 6.4 km/h 66 % 0.0 mm
03:05 14.5 °C 8.2 °C 1019.9 hPa NNE 1.6 km/h 3.2 km/h 66 % 0.0 mm
03:15 15.0 °C 8.2 °C 1019.9 hPa NE 1.6 km/h 3.2 km/h 64 % 0.0 mm
03:25 15.2 °C 8.4 °C 1018.8 hPa ENE 3.2 km/h 4.8 km/h 64 % 0.0 mm
03:35 15.4 °C 8.4 °C 1019.9 hPa ENE 3.2 km/h 4.8 km/h 63 % 0.0 mm
03:45 15.7 °C 8.4 °C 1019.9 hPa ENE 1.6 km/h 6.4 km/h 62 % 0.0 mm
03:55 16.1 °C 8.6 °C 1019.9 hPa ENE 1.6 km/h 4.8 km/h 61 % 0.0 mm
04:05 16.4 °C 8.6 °C 1019.9 hPa NNE 1.6 km/h 6.4 km/h 60 % 0.0 mm
04:15 16.7 °C 8.7 °C 1019.9 hPa WNW 3.2 km/h 6.4 km/h 59 % 0.0 mm
04:25 17.0 °C 8.2 °C 1019.9 hPa WSW 3.2 km/h 9.7 km/h 56 % 0.0 mm
04:35 17.4 °C 8.3 °C 1019.9 hPa WSW 1.6 km/h 9.7 km/h 55 % 0.0 mm
04:45 17.9 °C 8.4 °C 1019.9 hPa West 3.2 km/h 8.0 km/h 54 % 0.0 mm
04:55 18.0 °C 8.0 °C 1018.8 hPa West 3.2 km/h 4.8 km/h 52 % 0.0 mm
05:05 18.2 °C 8.2 °C 1018.8 hPa WSW 3.2 km/h 9.7 km/h 52 % 0.0 mm
05:15 18.9 °C 8.8 °C 1018.8 hPa WNW 1.6 km/h 6.4 km/h 52 % 0.0 mm
05:25 19.0 °C 8.3 °C 1018.8 hPa WNW 4.8 km/h 8.0 km/h 50 % 0.0 mm
05:35 19.4 °C 8.7 °C 1018.8 hPa West 3.2 km/h 6.4 km/h 50 % 0.0 mm
10:36 19.4 °C 8.7 °C 1018.8 hPa ENE 5.6 km/h 5.6 km/h 50 % 0.0 mm
10:41 19.4 °C 8.7 °C 1018.8 hPa SSE 3.7 km/h   50 % 0.0 mm
10:46 20.1 °C 9.1 °C 1018.8 hPa WSW 5.6 km/h 5.6 km/h 49 % 0.0 mm
10:51 20.0 °C 8.9 °C 1018.8 hPa NW 7.4 km/h 7.4 km/h 49 % 0.0 mm
10:56 20.8 °C 9.7 °C 1018.8 hPa NNW 3.9 km/h 3.9 km/h 49 % 0.0 mm
11:01 21.0 °C 9.6 °C 1018.8 hPa NE 5.3 km/h 5.3 km/h 48 % 0.0 mm
11:06 20.4 °C 9.3 °C 1018.8 hPa ENE 5.6 km/h 5.6 km/h 49 % 0.0 mm
11:11 20.4 °C 9.3 °C 1018.8 hPa East 5.6 km/h 5.6 km/h 49 % 0.0 mm
11:16 20.7 °C 9.6 °C 1018.8 hPa ESE 7.4 km/h 7.4 km/h 49 % 0.0 mm
11:21 21.0 °C 9.6 °C 1017.8 hPa ENE 5.6 km/h 5.6 km/h 48 % 0.0 mm
11:26 21.1 °C 9.7 °C 1017.8 hPa ENE 7.2 km/h 7.2 km/h 48 % 0.0 mm
11:31 21.3 °C 9.8 °C 1018.8 hPa ESE 7.9 km/h 7.9 km/h 48 % 0.0 mm
11:36 21.6 °C 9.5 °C 1018.8 hPa ESE 7.4 km/h 7.4 km/h 46 % 0.0 mm
11:41 22.0 °C 9.8 °C 1018.8 hPa WNW 9.3 km/h 9.3 km/h 46 % 0.0 mm
11:46 22.2 °C 9.7 °C 1018.8 hPa NW 9.3 km/h 9.3 km/h 45 % 0.0 mm
11:51 22.2 °C 9.7 °C 1018.8 hPa West 5.6 km/h 5.6 km/h 45 % 0.0 mm
11:56 22.5 °C 10.3 °C 1018.8 hPa WSW 9.3 km/h 9.3 km/h 46 % 0.0 mm
12:01 22.9 °C 10.3 °C 1017.8 hPa NNE 5.6 km/h 5.6 km/h 45 % 0.0 mm
12:06 23.4 °C 10.8 °C 1017.8 hPa SW 3.9 km/h 3.9 km/h 45 % 0.0 mm
12:11 22.9 °C 9.7 °C 1017.8 hPa East 9.3 km/h 9.3 km/h 43 % 0.0 mm
12:16 23.1 °C 9.1 °C 1017.8 hPa SW 9.7 km/h 9.7 km/h 41 % 0.0 mm
12:21 23.0 °C 9.1 °C 1017.8 hPa SW 11.1 km/h 11.1 km/h 41 % 0.0 mm
12:26 23.1 °C 8.8 °C 1017.8 hPa WNW 9.3 km/h 9.3 km/h 40 % 0.0 mm
12:36 23.6 °C 9.2 °C 1017.8 hPa WNW 7.4 km/h 7.4 km/h 40 % 0.0 mm
12:42 23.7 °C 9.3 °C 1017.8 hPa South 3.7 km/h 3.7 km/h 40 % 0.0 mm
12:46 23.7 °C 9.3 °C 1017.8 hPa SW 5.6 km/h 5.6 km/h 40 % 0.0 mm
12:51 24.1 °C 9.7 °C 1017.8 hPa NNE 5.6 km/h 5.6 km/h 40 % 0.0 mm
12:56 24.2 °C 9.4 °C 1017.8 hPa SW 9.3 km/h 9.3 km/h 39 % 0.0 mm
13:01 24.3 °C 9.4 °C 1017.8 hPa WSW 4.7 km/h 4.7 km/h 39 % 0.0 mm
13:06 24.3 °C 9.4 °C 1017.8 hPa SSE 7.4 km/h 7.4 km/h 39 % 0.0 mm
13:11 24.6 °C 8.9 °C 1017.8 hPa NNE 7.4 km/h 7.4 km/h 37 % 0.0 mm
13:16 25.0 °C 8.9 °C 1017.8 hPa NE 5.6 km/h 5.6 km/h 36 % 0.0 mm
13:21 25.0 °C 8.9 °C 1017.8 hPa NE 9.5 km/h 9.5 km/h 36 % 0.0 mm
13:26 24.4 °C 8.8 °C 1017.8 hPa North 5.6 km/h 5.6 km/h 37 % 0.0 mm
13:31 24.5 °C 8.4 °C 1017.8 hPa ENE 3.7 km/h 3.9 km/h 36 % 0.0 mm
13:36 25.2 °C 9.1 °C 1017.8 hPa SW 5.6 km/h 5.6 km/h 36 % 0.0 mm
13:41 24.9 °C 8.8 °C 1017.8 hPa ENE 7.4 km/h 7.4 km/h 36 % 0.0 mm
13:46 24.6 °C 8.6 °C 1017.8 hPa East 6.1 km/h 6.1 km/h 36 % 0.0 mm
13:51 24.7 °C 8.6 °C 1017.8 hPa ESE 7.4 km/h 7.4 km/h 36 % 0.0 mm
13:56 24.7 °C 8.6 °C 1017.8 hPa WSW 7.4 km/h 7.4 km/h 36 % 0.0 mm
14:01 24.7 °C 8.6 °C 1017.8 hPa South 5.8 km/h 5.8 km/h 36 % 0.0 mm
14:06 25.0 °C 8.1 °C 1017.8 hPa SW 5.6 km/h 5.6 km/h 34 % 0.0 mm
14:11 25.0 °C 8.1 °C 1017.8 hPa WSW 4.2 km/h 4.2 km/h 34 % 0.0 mm
14:16 26.1 °C 8.6 °C 1016.8 hPa WSW 8.7 km/h 8.7 km/h 33 % 0.0 mm
14:21 25.8 °C 7.8 °C 1016.8 hPa ESE 7.4 km/h 7.4 km/h 32 % 0.0 mm
14:26 25.5 °C 8.5 °C 1016.8 hPa NNE 16.7 km/h 16.7 km/h 34 % 0.0 mm
14:31 24.8 °C 8.7 °C 1015.8 hPa ESE 13.0 km/h 13.0 km/h 36 % 0.0 mm
14:36 24.6 °C 8.9 °C 1015.8 hPa East 16.7 km/h 16.7 km/h 37 % 0.0 mm
14:41 24.4 °C 8.8 °C 1015.8 hPa ESE 14.8 km/h 14.8 km/h 37 % 0.0 mm
14:46 24.6 °C 8.9 °C 1015.8 hPa ESE 16.7 km/h 16.7 km/h 37 % 0.0 mm
14:51 24.5 °C 9.2 °C 1015.8 hPa ENE 18.5 km/h 18.5 km/h 38 % 0.0 mm
14:56 24.9 °C 9.6 °C 1015.8 hPa ESE 5.6 km/h 6.1 km/h 38 % 0.0 mm
15:01 24.7 °C 9.4 °C 1015.8 hPa SE 16.7 km/h 16.7 km/h 38 % 0.0 mm
15:06 24.4 °C 9.2 °C 1015.8 hPa ESE 18.5 km/h 18.5 km/h 38 % 0.0 mm
15:11 24.4 °C 9.6 °C 1015.8 hPa ESE 16.1 km/h 16.1 km/h 39 % 0.0 mm
15:16 23.8 °C 9.0 °C 1015.8 hPa ESE 16.4 km/h 16.4 km/h 39 % 0.0 mm
15:21 23.6 °C 8.8 °C 1015.8 hPa East 14.8 km/h 14.8 km/h 39 % 0.0 mm
15:31 23.4 °C 9.0 °C 1015.8 hPa ESE 15.8 km/h 15.8 km/h 40 % 0.0 mm
15:36 23.4 °C 9.0 °C 1015.8 hPa ESE 19.5 km/h 19.5 km/h 40 % 0.0 mm
15:41 23.1 °C 8.8 °C 1015.8 hPa ESE 24.1 km/h 24.1 km/h 40 % 0.0 mm
15:47 23.0 °C 8.7 °C 1015.8 hPa ESE 20.9 km/h 20.9 km/h 40 % 0.0 mm
15:52 23.2 °C 8.8 °C 1015.8 hPa ENE 14.8 km/h 14.8 km/h 40 % 0.0 mm
15:57 23.1 °C 8.8 °C 1015.8 hPa ESE 20.4 km/h 20.4 km/h 40 % 0.0 mm
16:02 22.9 °C 8.9 °C 1014.8 hPa ESE 18.3 km/h 18.3 km/h 41 % 0.0 mm
16:07 22.8 °C 8.8 °C 1014.8 hPa ESE 20.4 km/h 20.4 km/h 41 % 0.0 mm
16:12 22.9 °C 8.9 °C 1014.8 hPa ESE 19.8 km/h 19.8 km/h 41 % 0.0 mm
16:17 22.5 °C 8.6 °C 1014.8 hPa ESE 24.1 km/h 24.1 km/h 41 % 0.0 mm
16:22 22.3 °C 8.4 °C 1014.8 hPa East 20.4 km/h 20.4 km/h 41 % 0.0 mm
16:27 22.2 °C 8.7 °C 1014.8 hPa ENE 20.4 km/h 20.4 km/h 42 % 0.0 mm
16:32 22.3 °C 8.8 °C 1014.8 hPa ENE 22.2 km/h 22.2 km/h 42 % 0.0 mm
16:37 22.3 °C 8.8 °C 1014.8 hPa ENE 11.1 km/h 11.1 km/h 42 % 0.0 mm
16:42 22.4 °C 8.8 °C 1014.8 hPa ESE 18.5 km/h 18.5 km/h 42 % 0.0 mm
16:47 22.6 °C 9.1 °C 1014.8 hPa ENE 17.2 km/h 17.2 km/h 42 % 0.0 mm
16:52 22.7 °C 9.1 °C 1014.8 hPa ESE 16.7 km/h 16.7 km/h 42 % 0.0 mm
16:57 22.8 °C 9.2 °C 1014.8 hPa ESE 13.0 km/h 13.0 km/h 42 % 0.0 mm
17:02 22.9 °C 9.3 °C 1014.8 hPa ESE 13.0 km/h 13.0 km/h 42 % 0.0 mm
17:07 22.9 °C 9.3 °C 1014.8 hPa East 18.5 km/h 18.5 km/h 42 % 0.0 mm
17:12 22.8 °C 9.2 °C 1014.8 hPa NE 20.4 km/h 20.4 km/h 42 % 0.0 mm
17:17 22.8 °C 9.2 °C 1014.8 hPa NNE 18.5 km/h 18.5 km/h 42 % 0.0 mm
17:22 22.6 °C 9.1 °C 1014.8 hPa ENE 16.4 km/h 16.4 km/h 42 % 0.0 mm
17:27 22.6 °C 9.1 °C 1014.8 hPa East 14.8 km/h 14.8 km/h 42 % 0.0 mm
17:32 22.9 °C 9.3 °C 1014.8 hPa ESE 9.3 km/h 9.3 km/h 42 % 0.0 mm
17:37 22.7 °C 9.1 °C 1014.8 hPa SE 14.8 km/h 14.8 km/h 42 % 0.0 mm
17:42 22.5 °C 8.9 °C 1014.8 hPa ESE 20.4 km/h 20.4 km/h 42 % 0.0 mm
17:47 22.5 °C 8.9 °C 1014.8 hPa ESE 19.5 km/h 19.5 km/h 42 % 0.0 mm
17:57 22.6 °C 9.1 °C 1014.8 hPa ESE 16.7 km/h 16.7 km/h 42 % 0.0 mm
18:02 22.5 °C 8.9 °C 1014.8 hPa ESE 13.0 km/h 13.0 km/h 42 % 0.0 mm
18:07 22.7 °C 9.1 °C 1014.8 hPa ESE 16.7 km/h 16.7 km/h 42 % 0.0 mm
18:12 22.4 °C 8.8 °C 1014.8 hPa ENE 13.0 km/h 13.0 km/h 42 % 0.0 mm
18:17 22.2 °C 8.7 °C 1014.8 hPa ESE 9.7 km/h 9.7 km/h 42 % 0.0 mm
18:22 22.3 °C 9.1 °C 1014.8 hPa East 13.0 km/h 13.0 km/h 43 % 0.0 mm
18:27 22.1 °C 8.9 °C 1014.8 hPa East 16.7 km/h 16.7 km/h 43 % 0.0 mm
18:32 21.9 °C 8.7 °C 1014.8 hPa North 11.1 km/h 11.1 km/h 43 % 0.0 mm
18:37 21.8 °C 8.7 °C 1014.8 hPa East 13.0 km/h 13.0 km/h 43 % 0.0 mm
18:42 21.6 °C 8.5 °C 1014.8 hPa East 20.4 km/h 20.4 km/h 43 % 0.0 mm
18:47 21.6 °C 8.5 °C 1014.8 hPa ESE 11.1 km/h 11.1 km/h 43 % 0.0 mm
18:52 21.5 °C 8.4 °C 1014.8 hPa ESE 13.0 km/h 13.0 km/h 43 % 0.0 mm
18:57 21.5 °C 8.7 °C 1014.8 hPa ESE 13.0 km/h 13.0 km/h 44 % 0.0 mm
19:02 21.2 °C 8.4 °C 1014.8 hPa ENE 16.7 km/h 16.7 km/h 44 % 0.0 mm
19:07 21.1 °C 8.4 °C 1014.8 hPa NE 14.8 km/h 14.8 km/h 44 % 0.0 mm
19:12 21.0 °C 8.3 °C 1014.8 hPa ESE 13.0 km/h 13.0 km/h 44 % 0.0 mm
19:15 15.7 °C 10.0 °C 1017.8 hPa ENE 1.6 km/h 3.2 km/h 69 % 0.0 mm
19:22 20.8 °C 8.8 °C 1015.8 hPa SE 16.7 km/h 16.7 km/h 46 % 0.0 mm
19:25 15.7 °C 10.0 °C 1017.8 hPa NE 3.2 km/h 3.2 km/h 69 % 0.0 mm
19:32 20.6 °C 8.6 °C 1014.8 hPa ESE 17.5 km/h 17.5 km/h 46 % 0.0 mm
19:35 15.6 °C 9.9 °C 1017.8 hPa NE 1.6 km/h 3.2 km/h 69 % 0.0 mm
19:37 20.5 °C 8.8 °C 1014.8 hPa East 16.1 km/h 16.1 km/h 47 % 0.0 mm
19:42 20.3 °C 8.6 °C 1014.8 hPa ENE 16.9 km/h 16.9 km/h 47 % 0.0 mm
19:45 15.5 °C 9.8 °C 1017.8 hPa NE 3.2 km/h 4.8 km/h 69 % 0.0 mm
19:47 20.2 °C 8.8 °C 1014.8 hPa ENE 16.4 km/h 16.4 km/h 48 % 0.0 mm
19:52 20.1 °C 8.7 °C 1014.8 hPa ESE 11.1 km/h 11.1 km/h 48 % 0.0 mm
19:55 15.4 °C 9.7 °C 1017.8 hPa NE 1.6 km/h 3.2 km/h 69 % 0.0 mm
19:57 20.1 °C 8.7 °C 1014.8 hPa South 9.3 km/h 9.5 km/h 48 % 0.0 mm
20:02 20.0 °C 8.9 °C 1015.8 hPa ESE 13.0 km/h 13.0 km/h 49 % 0.0 mm
20:05 15.3 °C 9.8 °C 1017.8 hPa NE 1.6 km/h 3.2 km/h 70 % 0.0 mm
20:07 19.9 °C 8.9 °C 1015.8 hPa East 11.1 km/h 11.1 km/h 49 % 0.0 mm
20:12 19.8 °C 9.1 °C 1015.8 hPa ESE 14.8 km/h 14.8 km/h 50 % 0.0 mm
20:15 15.2 °C 9.8 °C 1017.8 hPa Calm   1.6 km/h 70 % 0.0 mm
20:17 19.6 °C 8.9 °C 1015.8 hPa ENE 16.7 km/h 16.7 km/h 50 % 0.0 mm
20:22 19.3 °C 8.9 °C 1015.8 hPa ESE 14.8 km/h 14.8 km/h 51 % 0.0 mm
20:25 15.1 °C 9.9 °C 1017.8 hPa NNE 1.6 km/h 3.2 km/h 71 % 0.0 mm
20:27 19.1 °C 8.7 °C 1015.8 hPa East 13.0 km/h 13.0 km/h 51 % 0.0 mm
20:32 19.0 °C 8.9 °C 1015.8 hPa East 11.1 km/h 11.1 km/h 52 % 0.0 mm
20:35 15.0 °C 9.8 °C 1017.8 hPa Calm   3.2 km/h 71 % 0.0 mm
20:37 18.8 °C 9.3 °C 1015.8 hPa ENE 16.7 km/h 16.7 km/h 54 % 0.0 mm
20:42 18.7 °C 9.2 °C 1015.8 hPa ESE 14.8 km/h 14.8 km/h 54 % 0.0 mm
20:45 14.8 °C 9.6 °C 1017.8 hPa NE 1.6 km/h 3.2 km/h 71 % 0.0 mm
20:55 14.7 °C 9.5 °C 1016.8 hPa NE 1.6 km/h 3.2 km/h 71 % 0.0 mm
21:02 18.1 °C 9.4 °C 1014.8 hPa ESE 13.0 km/h 13.0 km/h 57 % 0.0 mm
21:07 18.0 °C 9.3 °C 1014.8 hPa East 14.8 km/h 14.8 km/h 57 % 0.0 mm
21:12 17.9 °C 9.5 °C 1014.8 hPa East 14.8 km/h 14.8 km/h 58 % 0.0 mm
21:15 14.5 °C 9.5 °C 1017.8 hPa Calm     72 % 0.0 mm
21:17 17.8 °C 9.4 °C 1015.8 hPa ESE 11.1 km/h 11.1 km/h 58 % 0.0 mm
21:22 17.7 °C 9.6 °C 1015.8 hPa ESE 5.6 km/h 9.7 km/h 59 % 0.0 mm
21:25 14.2 °C 9.0 °C 1017.8 hPa Calm   1.6 km/h 71 % 0.0 mm
21:33 17.5 °C 9.4 °C 1015.8 hPa East 14.8 km/h 14.8 km/h 59 % 0.0 mm
21:35 13.9 °C 8.7 °C 1017.8 hPa West 1.6 km/h 3.2 km/h 71 % 0.0 mm
21:38 17.4 °C 9.6 °C 1015.8 hPa ESE 14.8 km/h 14.8 km/h 60 % 0.0 mm
21:43 17.3 °C 9.4 °C 1015.8 hPa ENE 9.3 km/h 9.3 km/h 60 % 0.0 mm
21:45 13.9 °C 9.1 °C 1017.8 hPa Calm   3.2 km/h 73 % 0.0 mm
21:48 17.2 °C 9.6 °C 1015.8 hPa ESE 14.8 km/h 14.8 km/h 61 % 0.0 mm
21:53 17.1 °C 9.5 °C 1015.8 hPa ESE 12.6 km/h 12.6 km/h 61 % 0.0 mm
21:55 13.7 °C 9.3 °C 1017.8 hPa Calm     75 % 0.0 mm
21:58 17.1 °C 9.5 °C 1015.8 hPa ESE 5.8 km/h 5.8 km/h 61 % 0.0 mm
22:03 17.0 °C 9.4 °C 1015.8 hPa East 5.6 km/h 5.6 km/h 61 % 0.0 mm
22:05 13.6 °C 9.2 °C 1016.8 hPa Calm     75 % 0.0 mm
22:08 17.0 °C 9.4 °C 1015.8 hPa ESE 7.4 km/h 7.4 km/h 61 % 0.0 mm
22:13 16.9 °C 9.8 °C 1015.8 hPa East 9.3 km/h 9.3 km/h 63 % 0.0 mm
22:15 13.5 °C 9.2 °C 1016.8 hPa Calm     75 % 0.0 mm
22:18 16.8 °C 9.7 °C 1016.8 hPa ESE 7.4 km/h 7.6 km/h 63 % 0.0 mm
22:23 16.7 °C 9.6 °C 1016.8 hPa ESE 9.3 km/h 9.3 km/h 63 % 0.0 mm
22:25 13.4 °C 8.7 °C 1017.8 hPa SW 1.6 km/h 3.2 km/h 73 % 0.0 mm
22:28 16.7 °C 9.8 °C 1016.8 hPa ESE 10.0 km/h 10.0 km/h 64 % 0.0 mm
22:33 16.6 °C 9.8 °C 1016.8 hPa ESE 7.4 km/h 7.4 km/h 64 % 0.0 mm
22:35 13.5 °C 9.2 °C 1017.8 hPa WSW 1.6 km/h 3.2 km/h 75 % 0.0 mm
22:38 16.6 °C 9.8 °C 1016.8 hPa ESE 7.4 km/h 7.4 km/h 64 % 0.0 mm
22:43 16.5 °C 9.7 °C 1016.8 hPa ENE 5.6 km/h 5.8 km/h 64 % 0.0 mm
22:45 13.5 °C 9.2 °C 1017.8 hPa WSW 1.6 km/h 3.2 km/h 75 % 0.0 mm
22:48 16.5 °C 9.9 °C 1016.8 hPa ENE 7.4 km/h 7.4 km/h 65 % 0.0 mm
22:53 16.4 °C 9.8 °C 1016.8 hPa ESE 5.6 km/h 5.6 km/h 65 % 0.0 mm
22:55 13.5 °C 9.2 °C 1016.8 hPa WSW 1.6 km/h 3.2 km/h 75 % 0.0 mm
22:58 16.4 °C 9.8 °C 1016.8 hPa East 7.4 km/h 7.4 km/h 65 % 0.0 mm
23:03 16.3 °C 9.7 °C 1017.8 hPa East 5.6 km/h 5.6 km/h 65 % 0.0 mm
23:05 13.4 °C 9.4 °C 1017.8 hPa Calm   1.6 km/h 77 % 0.0 mm
23:08 16.2 °C 9.8 °C 1017.8 hPa ENE 3.9 km/h 3.9 km/h 66 % 0.0 mm
23:13 16.1 °C 9.7 °C 1017.8 hPa NE 1.9 km/h 3.5 km/h 66 % 0.0 mm
23:15 13.2 °C 9.3 °C 1017.8 hPa Calm     77 % 0.0 mm
23:18 16.0 °C 9.7 °C 1017.8 hPa NNE 3.7 km/h 3.7 km/h 66 % 0.0 mm
23:23 16.0 °C 9.9 °C 1017.8 hPa ESE 5.6 km/h 5.6 km/h 67 % 0.0 mm
23:25 13.2 °C 9.3 °C 1017.8 hPa WSW 1.6 km/h 1.6 km/h 77 % 0.0 mm
23:28 16.0 °C 9.9 °C 1017.8 hPa East 2.6 km/h 3.2 km/h 67 % 0.0 mm
23:33 16.0 °C 9.9 °C 1017.8 hPa East 2.6 km/h 3.2 km/h 67 % 0.0 mm
23:35 13.1 °C 9.2 °C 1017.8 hPa Calm   3.2 km/h 77 % 0.0 mm
23:38 16.1 °C 10.2 °C 1017.8 hPa ESE 3.7 km/h 4.2 km/h 68 % 0.0 mm
23:43 16.1 °C 10.2 °C 1017.8 hPa ESE 3.7 km/h 4.2 km/h 68 % 0.0 mm
23:45 13.0 °C 9.3 °C 1017.8 hPa Calm     78 % 0.0 mm
23:48 16.0 °C 10.1 °C 1017.8 hPa ESE 3.7 km/h 4.2 km/h 68 % 0.0 mm
23:53 15.9 °C 10.0 °C 1017.8 hPa ESE 3.7 km/h 4.2 km/h 68 % 0.0 mm
23:55 13.0 °C 9.3 °C 1016.8 hPa Calm     78 % 0.0 mm
23:58 15.9 °C 10.0 °C 1017.8 hPa ENE 3.7 km/h 3.7 km/h 68 % 0.0 mm
Meteo Sesrovires
Elogis d' Weather Underground - 3.75 mb

Guio original per  Jim McMurry - jmcmurry@mwt.net Adaptat per a la plantilla per  Wim van der Kuil - Leuven-Template.eu

Trobareu la nostra informacio del temps tambe a:

Weather Underground

AWEKAS